LGMT/MJT METAR and TAF weather

Enter ICAO airport designator
Station Type Date Time Source
LGMT METAR 2020/04/03 21:50 UTC NOAA

LGMT 032150Z VRB03KT 9999 FEW025 11/08 Q1016


Station Type Date Time Source
LGMT Decoded METAR 2020/04/03 21:50 UTC NOAA

Mytilini Airport , Greece (LGMT) 39-04N 026-36E 5M
Apr 03, 2020 - 05:50 PM EDT / 2020.04.03 2150 UTC
Wind: Variable at 3 MPH (3 KT):0
Visibility: greater than 7 mile(s):0
Sky conditions: mostly clear
Temperature: 51 F (11 C)
Dew Point: 46 F (8 C)
Relative Humidity: 81%
Pressure (altimeter): 30.00 in. Hg (1016 hPa)
ob: LGMT 032150Z VRB03KT 9999 FEW025 11/08 Q1016
cycle: 22

Station Type Date Time Source
LGMT TAF 2012/09/21 03:06 UTC NOAA

TAF LGMT 210200Z 2103/2115 VRB05KT 9999 SCT020
BECMG 2103/2105 30015KT PROB30
TEMPO 2103/2106 7000 RA SCT018 BKN030
BECMG 2107/2109 29012KT

Example: see airport list